sensor_id;sensor_type;location;lat;lon;timestamp;P1;durP1;ratioP1;P2;durP2;ratioP2
21402;SDS011;10862;51.886;17.078;2023-03-01T00:01:01;623.87;;;216.07;;
21402;SDS011;10862;51.886;17.078;2023-03-01T00:03:27;644.33;;;217.20;;
21402;SDS011;10862;51.886;17.078;2023-03-01T00:05:53;729.40;;;253.27;;
21402;SDS011;10862;51.886;17.078;2023-03-01T00:08:19;780.17;;;279.20;;
21402;SDS011;10862;51.886;17.078;2023-03-01T00:10:45;780.67;;;276.33;;
21402;SDS011;10862;51.886;17.078;2023-03-01T00:13:10;712.07;;;248.07;;
21402;SDS011;10862;51.886;17.078;2023-03-01T00:15:39;704.03;;;239.47;;
21402;SDS011;10862;51.886;17.078;2023-03-01T00:18:06;622.70;;;214.20;;
21402;SDS011;10862;51.886;17.078;2023-03-01T00:20:33;542.80;;;186.63;;
21402;SDS011;10862;51.886;17.078;2023-03-01T00:22:59;589.13;;;213.33;;
21402;SDS011;10862;51.886;17.078;2023-03-01T00:25:25;575.83;;;199.63;;
21402;SDS011;10862;51.886;17.078;2023-03-01T00:27:51;534.77;;;181.23;;
21402;SDS011;10862;51.886;17.078;2023-03-01T00:30:16;527.87;;;191.03;;
21402;SDS011;10862;51.886;17.078;2023-03-01T00:32:42;527.57;;;187.83;;
21402;SDS011;10862;51.886;17.078;2023-03-01T00:35:08;573.53;;;189.47;;
21402;SDS011;10862;51.886;17.078;2023-03-01T00:37:33;589.67;;;193.30;;
21402;SDS011;10862;51.886;17.078;2023-03-01T00:39:59;529.77;;;187.70;;
21402;SDS011;10862;51.886;17.078;2023-03-01T00:42:25;534.33;;;183.63;;
21402;SDS011;10862;51.886;17.078;2023-03-01T00:44:50;501.87;;;181.40;;
21402;SDS011;10862;51.886;17.078;2023-03-01T00:47:16;502.33;;;179.17;;
21402;SDS011;10862;51.886;17.078;2023-03-01T00:49:42;465.30;;;170.63;;
21402;SDS011;10862;51.886;17.078;2023-03-01T00:52:07;466.27;;;161.57;;
21402;SDS011;10862;51.886;17.078;2023-03-01T00:54:33;408.00;;;149.23;;
21402;SDS011;10862;51.886;17.078;2023-03-01T00:56:59;484.93;;;169.57;;
21402;SDS011;10862;51.886;17.078;2023-03-01T00:59:24;525.77;;;188.73;;
21402;SDS011;10862;51.886;17.078;2023-03-01T01:01:50;578.17;;;207.77;;
21402;SDS011;10862;51.886;17.078;2023-03-01T01:04:16;548.63;;;193.93;;
21402;SDS011;10862;51.886;17.078;2023-03-01T01:06:42;542.27;;;191.60;;
21402;SDS011;10862;51.886;17.078;2023-03-01T01:09:10;572.77;;;193.20;;
21402;SDS011;10862;51.886;17.078;2023-03-01T01:11:42;542.47;;;179.67;;
21402;SDS011;10862;51.886;17.078;2023-03-01T01:14:09;555.17;;;179.30;;
21402;SDS011;10862;51.886;17.078;2023-03-01T01:16:35;534.73;;;184.33;;
21402;SDS011;10862;51.886;17.078;2023-03-01T01:19:01;503.50;;;173.37;;
21402;SDS011;10862;51.886;17.078;2023-03-01T01:21:27;545.73;;;173.70;;
21402;SDS011;10862;51.886;17.078;2023-03-01T01:23:53;516.60;;;164.73;;
21402;SDS011;10862;51.886;17.078;2023-03-01T01:26:20;540.53;;;170.43;;
21402;SDS011;10862;51.886;17.078;2023-03-01T01:28:49;525.90;;;170.50;;
21402;SDS011;10862;51.886;17.078;2023-03-01T01:31:15;544.83;;;171.87;;
21402;SDS011;10862;51.886;17.078;2023-03-01T01:33:41;540.20;;;180.00;;
21402;SDS011;10862;51.886;17.078;2023-03-01T01:36:08;528.53;;;172.53;;
21402;SDS011;10862;51.886;17.078;2023-03-01T01:38:34;514.53;;;168.63;;
21402;SDS011;10862;51.886;17.078;2023-03-01T01:41:01;531.17;;;172.20;;
21402;SDS011;10862;51.886;17.078;2023-03-01T01:43:33;533.23;;;176.63;;
21402;SDS011;10862;51.886;17.078;2023-03-01T01:46:27;509.60;;;172.50;;
21402;SDS011;10862;51.886;17.078;2023-03-01T01:49:05;527.93;;;168.97;;
21402;SDS011;10862;51.886;17.078;2023-03-01T01:51:36;536.20;;;180.87;;
21402;SDS011;10862;51.886;17.078;2023-03-01T01:54:16;556.50;;;182.73;;
21402;SDS011;10862;51.886;17.078;2023-03-01T01:56:52;532.83;;;181.47;;
21402;SDS011;10862;51.886;17.078;2023-03-01T01:59:23;527.07;;;173.53;;
21402;SDS011;10862;51.886;17.078;2023-03-01T02:01:52;497.43;;;174.03;;
21402;SDS011;10862;51.886;17.078;2023-03-01T02:04:19;503.37;;;173.23;;
21402;SDS011;10862;51.886;17.078;2023-03-01T02:07:30;488.10;;;173.77;;
21402;SDS011;10862;51.886;17.078;2023-03-01T02:09:36;511.37;;;168.33;;
21402;SDS011;10862;51.886;17.078;2023-03-01T02:12:02;485.53;;;174.33;;
21402;SDS011;10862;51.886;17.078;2023-03-01T02:14:29;421.77;;;138.50;;
21402;SDS011;10862;51.886;17.078;2023-03-01T02:16:54;374.60;;;135.63;;
21402;SDS011;10862;51.886;17.078;2023-03-01T02:19:25;387.77;;;140.03;;
21402;SDS011;10862;51.886;17.078;2023-03-01T02:24:48;361.23;;;134.73;;
21402;SDS011;10862;51.886;17.078;2023-03-01T02:27:40;310.27;;;120.67;;
21402;SDS011;10862;51.886;17.078;2023-03-01T02:30:13;314.73;;;119.47;;
21402;SDS011;10862;51.886;17.078;2023-03-01T02:32:40;287.63;;;113.73;;
21402;SDS011;10862;51.886;17.078;2023-03-01T02:35:08;228.90;;;97.13;;
21402;SDS011;10862;51.886;17.078;2023-03-01T02:37:36;282.00;;;110.20;;
21402;SDS011;10862;51.886;17.078;2023-03-01T02:40:06;283.93;;;108.07;;
21402;SDS011;10862;51.886;17.078;2023-03-01T02:42:43;299.63;;;113.90;;
21402;SDS011;10862;51.886;17.078;2023-03-01T02:45:17;279.83;;;110.97;;
21402;SDS011;10862;51.886;17.078;2023-03-01T02:47:43;272.00;;;110.67;;
21402;SDS011;10862;51.886;17.078;2023-03-01T02:55:33;315.47;;;123.87;;
21402;SDS011;10862;51.886;17.078;2023-03-01T02:57:58;315.63;;;116.87;;
21402;SDS011;10862;51.886;17.078;2023-03-01T03:00:32;279.50;;;112.63;;
21402;SDS011;10862;51.886;17.078;2023-03-01T03:03:09;250.40;;;99.13;;
21402;SDS011;10862;51.886;17.078;2023-03-01T03:05:35;267.83;;;109.30;;
21402;SDS011;10862;51.886;17.078;2023-03-01T03:08:02;248.73;;;106.30;;
21402;SDS011;10862;51.886;17.078;2023-03-01T03:10:29;246.73;;;95.70;;
21402;SDS011;10862;51.886;17.078;2023-03-01T03:13:01;270.20;;;97.77;;
21402;SDS011;10862;51.886;17.078;2023-03-01T03:15:29;373.53;;;127.63;;
21402;SDS011;10862;51.886;17.078;2023-03-01T03:17:56;355.93;;;128.03;;
21402;SDS011;10862;51.886;17.078;2023-03-01T03:20:25;393.80;;;127.43;;
21402;SDS011;10862;51.886;17.078;2023-03-01T03:22:52;320.23;;;106.63;;
21402;SDS011;10862;51.886;17.078;2023-03-01T03:25:20;256.07;;;91.40;;
21402;SDS011;10862;51.886;17.078;2023-03-01T03:27:48;230.33;;;87.00;;
21402;SDS011;10862;51.886;17.078;2023-03-01T03:30:15;271.50;;;92.37;;
21402;SDS011;10862;51.886;17.078;2023-03-01T03:32:43;251.60;;;90.00;;
21402;SDS011;10862;51.886;17.078;2023-03-01T03:35:17;271.53;;;103.43;;
21402;SDS011;10862;51.886;17.078;2023-03-01T03:37:50;262.50;;;101.67;;
21402;SDS011;10862;51.886;17.078;2023-03-01T03:42:58;261.33;;;98.90;;
21402;SDS011;10862;51.886;17.078;2023-03-01T03:45:24;271.33;;;101.10;;
21402;SDS011;10862;51.886;17.078;2023-03-01T03:47:50;290.30;;;108.13;;
21402;SDS011;10862;51.886;17.078;2023-03-01T03:50:17;211.20;;;86.10;;
21402;SDS011;10862;51.886;17.078;2023-03-01T03:52:43;250.13;;;89.43;;
21402;SDS011;10862;51.886;17.078;2023-03-01T03:55:10;244.37;;;87.37;;
21402;SDS011;10862;51.886;17.078;2023-03-01T03:57:40;230.27;;;89.43;;
21402;SDS011;10862;51.886;17.078;2023-03-01T04:00:07;241.13;;;87.03;;
21402;SDS011;10862;51.886;17.078;2023-03-01T04:02:41;244.87;;;93.47;;
21402;SDS011;10862;51.886;17.078;2023-03-01T04:05:07;281.37;;;94.80;;
21402;SDS011;10862;51.886;17.078;2023-03-01T04:07:35;263.67;;;90.33;;
21402;SDS011;10862;51.886;17.078;2023-03-01T04:10:04;280.70;;;104.13;;
21402;SDS011;10862;51.886;17.078;2023-03-01T04:12:32;353.70;;;127.73;;
21402;SDS011;10862;51.886;17.078;2023-03-01T04:14:59;287.33;;;107.10;;
21402;SDS011;10862;51.886;17.078;2023-03-01T04:17:25;327.53;;;120.70;;
21402;SDS011;10862;51.886;17.078;2023-03-01T04:19:51;329.23;;;117.57;;
21402;SDS011;10862;51.886;17.078;2023-03-01T04:22:18;345.87;;;126.07;;
21402;SDS011;10862;51.886;17.078;2023-03-01T04:24:44;422.03;;;144.27;;
21402;SDS011;10862;51.886;17.078;2023-03-01T04:27:10;399.70;;;145.33;;
21402;SDS011;10862;51.886;17.078;2023-03-01T04:29:36;420.90;;;153.00;;
21402;SDS011;10862;51.886;17.078;2023-03-01T04:32:02;426.43;;;151.57;;
21402;SDS011;10862;51.886;17.078;2023-03-01T04:34:28;524.23;;;184.13;;
21402;SDS011;10862;51.886;17.078;2023-03-01T04:36:54;462.90;;;152.57;;
21402;SDS011;10862;51.886;17.078;2023-03-01T04:39:21;417.90;;;145.33;;
21402;SDS011;10862;51.886;17.078;2023-03-01T04:41:47;417.60;;;145.40;;
21402;SDS011;10862;51.886;17.078;2023-03-01T04:44:12;423.93;;;158.63;;
21402;SDS011;10862;51.886;17.078;2023-03-01T04:46:38;419.73;;;165.37;;
21402;SDS011;10862;51.886;17.078;2023-03-01T04:49:04;484.63;;;168.97;;
21402;SDS011;10862;51.886;17.078;2023-03-01T04:51:30;445.03;;;157.53;;
21402;SDS011;10862;51.886;17.078;2023-03-01T04:53:57;425.23;;;152.10;;
21402;SDS011;10862;51.886;17.078;2023-03-01T04:56:23;409.50;;;148.03;;
21402;SDS011;10862;51.886;17.078;2023-03-01T04:58:49;371.47;;;142.57;;
21402;SDS011;10862;51.886;17.078;2023-03-01T05:01:18;369.17;;;136.90;;
21402;SDS011;10862;51.886;17.078;2023-03-01T05:03:49;393.67;;;141.47;;
21402;SDS011;10862;51.886;17.078;2023-03-01T05:06:16;368.13;;;128.43;;
21402;SDS011;10862;51.886;17.078;2023-03-01T05:08:43;371.43;;;132.77;;
21402;SDS011;10862;51.886;17.078;2023-03-01T05:11:10;364.63;;;130.40;;
21402;SDS011;10862;51.886;17.078;2023-03-01T05:13:36;379.67;;;136.73;;
21402;SDS011;10862;51.886;17.078;2023-03-01T05:16:03;358.00;;;128.97;;
21402;SDS011;10862;51.886;17.078;2023-03-01T05:18:31;267.33;;;106.63;;
21402;SDS011;10862;51.886;17.078;2023-03-01T05:21:08;274.67;;;103.23;;
21402;SDS011;10862;51.886;17.078;2023-03-01T05:23:35;470.17;;;176.33;;
21402;SDS011;10862;51.886;17.078;2023-03-01T05:26:01;502.60;;;170.30;;
21402;SDS011;10862;51.886;17.078;2023-03-01T05:28:29;375.43;;;134.50;;
21402;SDS011;10862;51.886;17.078;2023-03-01T05:30:55;373.40;;;132.40;;
21402;SDS011;10862;51.886;17.078;2023-03-01T05:33:22;363.53;;;135.70;;
21402;SDS011;10862;51.886;17.078;2023-03-01T05:35:49;389.80;;;137.63;;
21402;SDS011;10862;51.886;17.078;2023-03-01T05:38:15;412.27;;;142.00;;
21402;SDS011;10862;51.886;17.078;2023-03-01T05:40:42;416.73;;;141.33;;
21402;SDS011;10862;51.886;17.078;2023-03-01T05:43:09;401.20;;;145.53;;
21402;SDS011;10862;51.886;17.078;2023-03-01T05:45:37;455.47;;;171.27;;
21402;SDS011;10862;51.886;17.078;2023-03-01T05:48:04;498.60;;;198.90;;
21402;SDS011;10862;51.886;17.078;2023-03-01T05:50:35;433.57;;;154.07;;
21402;SDS011;10862;51.886;17.078;2023-03-01T05:53:14;378.70;;;138.13;;
21402;SDS011;10862;51.886;17.078;2023-03-01T05:55:41;407.87;;;148.60;;
21402;SDS011;10862;51.886;17.078;2023-03-01T05:58:12;381.43;;;141.97;;
21402;SDS011;10862;51.886;17.078;2023-03-01T06:00:39;374.87;;;136.13;;
21402;SDS011;10862;51.886;17.078;2023-03-01T06:03:06;387.73;;;137.30;;
21402;SDS011;10862;51.886;17.078;2023-03-01T06:05:31;425.20;;;150.47;;
21402;SDS011;10862;51.886;17.078;2023-03-01T06:08:00;405.73;;;149.97;;
21402;SDS011;10862;51.886;17.078;2023-03-01T06:10:27;441.93;;;158.53;;
21402;SDS011;10862;51.886;17.078;2023-03-01T06:12:53;479.73;;;174.20;;
21402;SDS011;10862;51.886;17.078;2023-03-01T06:15:19;450.87;;;168.03;;
21402;SDS011;10862;51.886;17.078;2023-03-01T06:17:45;517.77;;;171.33;;
21402;SDS011;10862;51.886;17.078;2023-03-01T06:20:18;433.47;;;161.93;;
21402;SDS011;10862;51.886;17.078;2023-03-01T06:22:45;379.70;;;149.00;;
21402;SDS011;10862;51.886;17.078;2023-03-01T06:25:12;520.10;;;198.67;;
21402;SDS011;10862;51.886;17.078;2023-03-01T06:27:40;553.40;;;204.20;;
21402;SDS011;10862;51.886;17.078;2023-03-01T06:30:07;671.53;;;263.30;;
21402;SDS011;10862;51.886;17.078;2023-03-01T06:32:35;731.60;;;282.30;;
21402;SDS011;10862;51.886;17.078;2023-03-01T06:35:02;662.83;;;261.53;;
21402;SDS011;10862;51.886;17.078;2023-03-01T06:37:29;590.50;;;227.63;;
21402;SDS011;10862;51.886;17.078;2023-03-01T06:39:54;590.50;;;243.27;;
21402;SDS011;10862;51.886;17.078;2023-03-01T06:42:20;588.77;;;232.77;;
21402;SDS011;10862;51.886;17.078;2023-03-01T06:44:46;606.13;;;233.13;;
21402;SDS011;10862;51.886;17.078;2023-03-01T06:47:11;662.70;;;258.67;;
21402;SDS011;10862;51.886;17.078;2023-03-01T06:49:37;661.73;;;252.97;;
21402;SDS011;10862;51.886;17.078;2023-03-01T06:52:03;580.80;;;232.80;;
21402;SDS011;10862;51.886;17.078;2023-03-01T06:54:29;556.43;;;201.87;;
21402;SDS011;10862;51.886;17.078;2023-03-01T06:56:55;592.83;;;219.73;;
21402;SDS011;10862;51.886;17.078;2023-03-01T06:59:20;559.67;;;205.33;;
21402;SDS011;10862;51.886;17.078;2023-03-01T07:01:46;506.40;;;184.80;;
21402;SDS011;10862;51.886;17.078;2023-03-01T07:04:12;464.00;;;165.13;;
21402;SDS011;10862;51.886;17.078;2023-03-01T07:06:38;484.20;;;166.90;;
21402;SDS011;10862;51.886;17.078;2023-03-01T07:09:04;462.27;;;169.30;;
21402;SDS011;10862;51.886;17.078;2023-03-01T07:11:30;474.37;;;175.43;;
21402;SDS011;10862;51.886;17.078;2023-03-01T07:13:56;391.57;;;148.93;;
21402;SDS011;10862;51.886;17.078;2023-03-01T07:16:23;399.70;;;144.43;;
21402;SDS011;10862;51.886;17.078;2023-03-01T07:18:49;307.63;;;120.17;;
21402;SDS011;10862;51.886;17.078;2023-03-01T07:21:14;359.20;;;143.33;;
21402;SDS011;10862;51.886;17.078;2023-03-01T07:23:41;296.93;;;111.17;;
21402;SDS011;10862;51.886;17.078;2023-03-01T07:26:07;269.43;;;100.70;;
21402;SDS011;10862;51.886;17.078;2023-03-01T07:28:32;276.67;;;107.53;;
21402;SDS011;10862;51.886;17.078;2023-03-01T07:31:03;247.17;;;95.77;;
21402;SDS011;10862;51.886;17.078;2023-03-01T07:33:32;248.87;;;94.53;;
21402;SDS011;10862;51.886;17.078;2023-03-01T07:35:59;250.03;;;103.00;;
21402;SDS011;10862;51.886;17.078;2023-03-01T07:38:26;235.60;;;96.53;;
21402;SDS011;10862;51.886;17.078;2023-03-01T07:40:52;251.80;;;95.57;;
21402;SDS011;10862;51.886;17.078;2023-03-01T07:43:18;259.27;;;103.10;;
21402;SDS011;10862;51.886;17.078;2023-03-01T07:45:45;230.17;;;92.03;;
21402;SDS011;10862;51.886;17.078;2023-03-01T07:48:11;205.90;;;83.83;;
21402;SDS011;10862;51.886;17.078;2023-03-01T07:50:37;204.87;;;87.27;;
21402;SDS011;10862;51.886;17.078;2023-03-01T07:53:02;177.10;;;76.03;;
21402;SDS011;10862;51.886;17.078;2023-03-01T07:55:29;219.83;;;91.77;;
21402;SDS011;10862;51.886;17.078;2023-03-01T07:57:55;202.03;;;81.30;;
21402;SDS011;10862;51.886;17.078;2023-03-01T08:00:21;158.90;;;66.07;;
21402;SDS011;10862;51.886;17.078;2023-03-01T08:02:46;148.57;;;61.03;;
21402;SDS011;10862;51.886;17.078;2023-03-01T08:05:12;124.43;;;53.30;;
21402;SDS011;10862;51.886;17.078;2023-03-01T08:07:38;150.50;;;57.43;;
21402;SDS011;10862;51.886;17.078;2023-03-01T08:10:04;140.63;;;60.40;;
21402;SDS011;10862;51.886;17.078;2023-03-01T08:12:30;133.90;;;60.23;;
21402;SDS011;10862;51.886;17.078;2023-03-01T08:14:56;130.07;;;57.03;;
21402;SDS011;10862;51.886;17.078;2023-03-01T08:17:22;136.43;;;56.70;;
21402;SDS011;10862;51.886;17.078;2023-03-01T08:19:47;164.87;;;69.80;;
21402;SDS011;10862;51.886;17.078;2023-03-01T08:22:13;171.47;;;71.57;;
21402;SDS011;10862;51.886;17.078;2023-03-01T08:24:39;146.50;;;61.10;;
21402;SDS011;10862;51.886;17.078;2023-03-01T08:27:04;133.73;;;59.67;;
21402;SDS011;10862;51.886;17.078;2023-03-01T08:29:31;110.60;;;54.93;;
21402;SDS011;10862;51.886;17.078;2023-03-01T08:31:57;107.87;;;48.53;;
21402;SDS011;10862;51.886;17.078;2023-03-01T08:34:23;106.40;;;50.30;;
21402;SDS011;10862;51.886;17.078;2023-03-01T08:36:49;103.20;;;47.57;;
21402;SDS011;10862;51.886;17.078;2023-03-01T08:39:17;94.00;;;47.87;;
21402;SDS011;10862;51.886;17.078;2023-03-01T08:41:44;90.63;;;46.77;;
21402;SDS011;10862;51.886;17.078;2023-03-01T08:44:11;101.70;;;53.00;;
21402;SDS011;10862;51.886;17.078;2023-03-01T08:46:40;95.17;;;43.43;;
21402;SDS011;10862;51.886;17.078;2023-03-01T08:49:16;78.73;;;39.60;;
21402;SDS011;10862;51.886;17.078;2023-03-01T08:51:43;76.07;;;39.20;;
21402;SDS011;10862;51.886;17.078;2023-03-01T08:54:11;91.63;;;42.13;;
21402;SDS011;10862;51.886;17.078;2023-03-01T08:56:38;74.80;;;38.97;;
21402;SDS011;10862;51.886;17.078;2023-03-01T08:59:04;81.90;;;36.10;;
21402;SDS011;10862;51.886;17.078;2023-03-01T09:01:30;55.83;;;32.43;;
21402;SDS011;10862;51.886;17.078;2023-03-01T09:03:55;59.10;;;32.87;;
21402;SDS011;10862;51.886;17.078;2023-03-01T09:06:21;39.03;;;25.80;;
21402;SDS011;10862;51.886;17.078;2023-03-01T09:08:47;34.07;;;23.73;;
21402;SDS011;10862;51.886;17.078;2023-03-01T09:11:16;71.80;;;35.50;;
21402;SDS011;10862;51.886;17.078;2023-03-01T09:13:44;46.60;;;31.90;;
21402;SDS011;10862;51.886;17.078;2023-03-01T09:16:11;52.57;;;31.80;;
21402;SDS011;10862;51.886;17.078;2023-03-01T09:18:39;47.07;;;32.03;;
21402;SDS011;10862;51.886;17.078;2023-03-01T09:21:09;49.47;;;32.90;;
21402;SDS011;10862;51.886;17.078;2023-03-01T09:23:40;46.47;;;31.70;;
21402;SDS011;10862;51.886;17.078;2023-03-01T09:26:11;64.93;;;34.73;;
21402;SDS011;10862;51.886;17.078;2023-03-01T09:28:44;65.73;;;37.80;;
21402;SDS011;10862;51.886;17.078;2023-03-01T09:31:10;42.13;;;28.67;;
21402;SDS011;10862;51.886;17.078;2023-03-01T09:33:40;77.40;;;40.37;;
21402;SDS011;10862;51.886;17.078;2023-03-01T09:36:08;44.20;;;30.53;;
21402;SDS011;10862;51.886;17.078;2023-03-01T09:38:37;65.80;;;37.37;;
21402;SDS011;10862;51.886;17.078;2023-03-01T09:41:08;37.07;;;27.80;;
21402;SDS011;10862;51.886;17.078;2023-03-01T09:43:48;37.60;;;28.13;;
21402;SDS011;10862;51.886;17.078;2023-03-01T09:46:22;42.37;;;28.07;;
21402;SDS011;10862;51.886;17.078;2023-03-01T09:48:51;35.63;;;26.57;;
21402;SDS011;10862;51.886;17.078;2023-03-01T09:51:23;30.23;;;24.40;;
21402;SDS011;10862;51.886;17.078;2023-03-01T09:53:54;54.70;;;32.83;;
21402;SDS011;10862;51.886;17.078;2023-03-01T09:56:24;55.20;;;32.47;;
21402;SDS011;10862;51.886;17.078;2023-03-01T10:02:11;40.93;;;27.70;;
21402;SDS011;10862;51.886;17.078;2023-03-01T10:04:54;36.57;;;25.73;;
21402;SDS011;10862;51.886;17.078;2023-03-01T10:10:43;29.87;;;24.33;;
21402;SDS011;10862;51.886;17.078;2023-03-01T10:16:04;35.03;;;24.07;;
21402;SDS011;10862;51.886;17.078;2023-03-01T10:18:37;27.70;;;21.70;;
21402;SDS011;10862;51.886;17.078;2023-03-01T10:21:15;25.33;;;22.73;;
21402;SDS011;10862;51.886;17.078;2023-03-01T10:23:44;24.10;;;21.70;;
21402;SDS011;10862;51.886;17.078;2023-03-01T10:31:15;36.03;;;26.57;;
21402;SDS011;10862;51.886;17.078;2023-03-01T10:33:47;27.43;;;24.27;;
21402;SDS011;10862;51.886;17.078;2023-03-01T10:36:16;32.87;;;26.27;;
21402;SDS011;10862;51.886;17.078;2023-03-01T10:38:52;50.83;;;30.93;;
21402;SDS011;10862;51.886;17.078;2023-03-01T10:41:20;26.47;;;23.43;;
21402;SDS011;10862;51.886;17.078;2023-03-01T10:49:15;34.43;;;25.37;;
21402;SDS011;10862;51.886;17.078;2023-03-01T10:51:48;23.60;;;21.13;;
21402;SDS011;10862;51.886;17.078;2023-03-01T10:54:16;28.67;;;25.57;;
21402;SDS011;10862;51.886;17.078;2023-03-01T10:57:02;30.87;;;27.47;;
21402;SDS011;10862;51.886;17.078;2023-03-01T10:59:31;30.13;;;25.83;;
21402;SDS011;10862;51.886;17.078;2023-03-01T11:02:14;31.80;;;26.70;;
21402;SDS011;10862;51.886;17.078;2023-03-01T11:07:57;30.50;;;27.27;;
21402;SDS011;10862;51.886;17.078;2023-03-01T11:10:27;47.97;;;35.80;;
21402;SDS011;10862;51.886;17.078;2023-03-01T11:12:54;28.47;;;25.57;;
21402;SDS011;10862;51.886;17.078;2023-03-01T11:15:58;25.57;;;23.03;;
21402;SDS011;10862;51.886;17.078;2023-03-01T11:18:25;25.87;;;23.33;;
21402;SDS011;10862;51.886;17.078;2023-03-01T11:20:52;28.70;;;25.17;;
21402;SDS011;10862;51.886;17.078;2023-03-01T11:23:20;24.40;;;22.30;;
21402;SDS011;10862;51.886;17.078;2023-03-01T11:25:56;25.60;;;23.13;;
21402;SDS011;10862;51.886;17.078;2023-03-01T11:28:31;26.60;;;24.13;;
21402;SDS011;10862;51.886;17.078;2023-03-01T11:31:09;27.53;;;24.83;;
21402;SDS011;10862;51.886;17.078;2023-03-01T11:39:17;26.50;;;24.40;;
21402;SDS011;10862;51.886;17.078;2023-03-01T11:42:13;24.60;;;22.20;;
21402;SDS011;10862;51.886;17.078;2023-03-01T11:44:43;31.30;;;27.93;;
21402;SDS011;10862;51.886;17.078;2023-03-01T11:49:48;26.67;;;23.83;;
21402;SDS011;10862;51.886;17.078;2023-03-01T11:52:36;23.97;;;21.43;;
21402;SDS011;10862;51.886;17.078;2023-03-01T12:16:59;33.50;;;25.67;;
21402;SDS011;10862;51.886;17.078;2023-03-01T12:22:20;22.40;;;20.17;;
21402;SDS011;10862;51.886;17.078;2023-03-01T12:25:24;26.20;;;21.60;;
21402;SDS011;10862;51.886;17.078;2023-03-01T12:28:02;74.77;;;43.20;;
21402;SDS011;10862;51.886;17.078;2023-03-01T12:31:08;57.03;;;29.73;;
21402;SDS011;10862;51.886;17.078;2023-03-01T12:36:38;20.80;;;18.70;;
21402;SDS011;10862;51.886;17.078;2023-03-01T12:45:05;34.80;;;23.83;;
21402;SDS011;10862;51.886;17.078;2023-03-01T12:50:41;155.87;;;79.37;;
21402;SDS011;10862;51.886;17.078;2023-03-01T12:53:16;27.47;;;23.13;;
21402;SDS011;10862;51.886;17.078;2023-03-01T12:55:58;42.00;;;28.50;;
21402;SDS011;10862;51.886;17.078;2023-03-01T13:04:07;25.33;;;20.87;;
21402;SDS011;10862;51.886;17.078;2023-03-01T13:07:13;18.40;;;16.63;;
21402;SDS011;10862;51.886;17.078;2023-03-01T13:23:08;98.80;;;43.53;;
21402;SDS011;10862;51.886;17.078;2023-03-01T13:25:35;54.87;;;29.60;;
21402;SDS011;10862;51.886;17.078;2023-03-01T13:33:46;63.30;;;32.90;;
21402;SDS011;10862;51.886;17.078;2023-03-01T13:36:47;188.07;;;59.00;;
21402;SDS011;10862;51.886;17.078;2023-03-01T13:39:28;159.83;;;48.00;;
21402;SDS011;10862;51.886;17.078;2023-03-01T13:41:57;89.90;;;33.53;;
21402;SDS011;10862;51.886;17.078;2023-03-01T13:44:34;37.47;;;24.57;;
21402;SDS011;10862;51.886;17.078;2023-03-01T13:52:30;73.90;;;33.43;;
21402;SDS011;10862;51.886;17.078;2023-03-01T13:55:00;57.83;;;29.17;;
21402;SDS011;10862;51.886;17.078;2023-03-01T13:57:36;33.97;;;22.23;;
21402;SDS011;10862;51.886;17.078;2023-03-01T14:00:06;24.13;;;19.83;;
21402;SDS011;10862;51.886;17.078;2023-03-01T14:02:59;24.03;;;21.50;;
21402;SDS011;10862;51.886;17.078;2023-03-01T14:08:34;22.70;;;19.33;;
21402;SDS011;10862;51.886;17.078;2023-03-01T14:19:39;30.60;;;24.13;;
21402;SDS011;10862;51.886;17.078;2023-03-01T14:22:22;30.07;;;27.07;;
21402;SDS011;10862;51.886;17.078;2023-03-01T14:24:49;41.37;;;33.53;;
21402;SDS011;10862;51.886;17.078;2023-03-01T14:27:20;25.37;;;22.87;;
21402;SDS011;10862;51.886;17.078;2023-03-01T14:30:00;25.33;;;19.87;;
21402;SDS011;10862;51.886;17.078;2023-03-01T14:32:37;71.83;;;45.37;;
21402;SDS011;10862;51.886;17.078;2023-03-01T14:35:03;49.53;;;36.03;;
21402;SDS011;10862;51.886;17.078;2023-03-01T14:37:48;29.83;;;23.10;;
21402;SDS011;10862;51.886;17.078;2023-03-01T14:40:25;433.67;;;182.37;;
21402;SDS011;10862;51.886;17.078;2023-03-01T14:42:56;26.37;;;19.33;;
21402;SDS011;10862;51.886;17.078;2023-03-01T14:45:25;22.03;;;19.17;;
21402;SDS011;10862;51.886;17.078;2023-03-01T14:47:52;20.70;;;18.60;;
21402;SDS011;10862;51.886;17.078;2023-03-01T14:50:27;22.63;;;20.53;;
21402;SDS011;10862;51.886;17.078;2023-03-01T14:52:59;22.47;;;19.97;;
21402;SDS011;10862;51.886;17.078;2023-03-01T14:58:06;40.13;;;25.73;;
21402;SDS011;10862;51.886;17.078;2023-03-01T15:00:37;27.40;;;21.87;;
21402;SDS011;10862;51.886;17.078;2023-03-01T15:03:07;23.00;;;20.30;;
21402;SDS011;10862;51.886;17.078;2023-03-01T15:05:38;23.53;;;20.47;;
21402;SDS011;10862;51.886;17.078;2023-03-01T15:08:05;105.77;;;43.53;;
21402;SDS011;10862;51.886;17.078;2023-03-01T15:10:34;49.53;;;28.83;;
21402;SDS011;10862;51.886;17.078;2023-03-01T15:13:11;22.73;;;20.03;;
21402;SDS011;10862;51.886;17.078;2023-03-01T15:15:48;35.10;;;22.93;;
21402;SDS011;10862;51.886;17.078;2023-03-01T15:20:45;69.43;;;31.87;;
21402;SDS011;10862;51.886;17.078;2023-03-01T15:23:28;66.73;;;33.87;;
21402;SDS011;10862;51.886;17.078;2023-03-01T15:25:55;50.37;;;29.57;;
21402;SDS011;10862;51.886;17.078;2023-03-01T15:28:26;34.33;;;25.70;;
21402;SDS011;10862;51.886;17.078;2023-03-01T15:30:57;31.87;;;26.23;;
21402;SDS011;10862;51.886;17.078;2023-03-01T15:33:37;172.10;;;61.23;;
21402;SDS011;10862;51.886;17.078;2023-03-01T15:36:30;86.67;;;36.97;;
21402;SDS011;10862;51.886;17.078;2023-03-01T15:38:58;141.50;;;55.53;;
21402;SDS011;10862;51.886;17.078;2023-03-01T15:44:25;66.57;;;38.07;;
21402;SDS011;10862;51.886;17.078;2023-03-01T15:46:55;73.17;;;37.17;;
21402;SDS011;10862;51.886;17.078;2023-03-01T15:49:40;86.77;;;42.53;;
21402;SDS011;10862;51.886;17.078;2023-03-01T15:52:19;150.23;;;71.83;;
21402;SDS011;10862;51.886;17.078;2023-03-01T15:54:57;81.70;;;42.50;;
21402;SDS011;10862;51.886;17.078;2023-03-01T15:57:25;52.50;;;29.70;;
21402;SDS011;10862;51.886;17.078;2023-03-01T15:59:51;60.63;;;30.70;;
21402;SDS011;10862;51.886;17.078;2023-03-01T16:02:17;67.27;;;30.93;;
21402;SDS011;10862;51.886;17.078;2023-03-01T16:04:45;70.40;;;37.73;;
21402;SDS011;10862;51.886;17.078;2023-03-01T16:07:11;68.17;;;35.73;;
21402;SDS011;10862;51.886;17.078;2023-03-01T16:09:37;73.80;;;34.77;;
21402;SDS011;10862;51.886;17.078;2023-03-01T16:12:03;95.07;;;40.10;;
21402;SDS011;10862;51.886;17.078;2023-03-01T16:14:29;81.83;;;39.83;;
21402;SDS011;10862;51.886;17.078;2023-03-01T16:16:54;57.47;;;35.20;;
21402;SDS011;10862;51.886;17.078;2023-03-01T16:19:20;81.90;;;37.20;;